createdAt,value
2023-04-27T00:01:38.341Z,100829.31
2023-04-27T00:04:07.920Z,100817.94
2023-04-27T00:06:36.994Z,100823.41
2023-04-27T00:09:05.392Z,100828.44
2023-04-27T00:11:34.489Z,100819.72
2023-04-27T00:14:02.922Z,100824.94
2023-04-27T00:16:31.807Z,100824.81
2023-04-27T00:19:01.194Z,100819.59
2023-04-27T00:21:29.925Z,100815.13
2023-04-27T00:23:58.445Z,100810.78
2023-04-27T00:26:27.274Z,100817.78
2023-04-27T00:28:56.385Z,100808.13
2023-04-27T00:31:26.372Z,100813.44
2023-04-27T00:33:54.791Z,100809.34
2023-04-27T00:36:23.584Z,100815.41
2023-04-27T00:38:51.971Z,100819.03
2023-04-27T00:41:20.724Z,100820.72
2023-04-27T00:43:49.104Z,100825.34
2023-04-27T00:46:19.983Z,100822.56
2023-04-27T00:48:48.401Z,100820.00
2023-04-27T00:51:17.294Z,100812.97
2023-04-27T00:53:45.783Z,100810.19
2023-04-27T00:56:15.526Z,100815.66
2023-04-27T00:58:43.864Z,100815.66
2023-04-27T01:01:13.528Z,100822.81
2023-04-27T01:03:42.210Z,100810.31
2023-04-27T01:06:11.113Z,100810.44
2023-04-27T01:08:39.573Z,100806.94
2023-04-27T01:11:08.309Z,100800.66
2023-04-27T01:13:36.763Z,100812.16
2023-04-27T01:16:06.973Z,100803.31
2023-04-27T01:18:35.411Z,100795.56
2023-04-27T01:21:04.434Z,100798.00
2023-04-27T01:23:33.595Z,100798.00
2023-04-27T01:26:02.449Z,100798.13
2023-04-27T01:28:31.649Z,100803.44
2023-04-27T01:31:02.581Z,100808.06
2023-04-27T01:33:31.360Z,100799.06
2023-04-27T01:36:00.462Z,100797.28
2023-04-27T01:38:30.274Z,100810.59
2023-04-27T01:41:02.176Z,100814.22
2023-04-27T01:43:31.591Z,100809.19
2023-04-27T01:46:11.884Z,100807.47
2023-04-27T01:48:40.924Z,100816.88
2023-04-27T01:51:09.756Z,100814.34
2023-04-27T01:53:38.129Z,100822.22
2023-04-27T01:56:07.057Z,100826.72
2023-04-27T01:58:35.678Z,100824.03
2023-04-27T02:01:04.990Z,100832.88
2023-04-27T02:03:34.133Z,100831.19
2023-04-27T02:06:03.104Z,100826.00
2023-04-27T02:08:31.597Z,100841.00
2023-04-27T02:11:00.647Z,100834.81
2023-04-27T02:13:29.001Z,100838.47
2023-04-27T02:15:58.641Z,100834.13
2023-04-27T02:18:28.086Z,100831.44
2023-04-27T02:20:56.856Z,100840.41
2023-04-27T02:23:25.282Z,100847.44
2023-04-27T02:25:55.228Z,100849.13
2023-04-27T02:28:23.638Z,100849.25
2023-04-27T02:30:52.815Z,100851.94
2023-04-27T02:33:21.608Z,100855.44
2023-04-27T02:35:50.398Z,100847.25
2023-04-27T02:38:18.775Z,100862.59
2023-04-27T02:40:47.555Z,100863.53
2023-04-27T02:43:16.095Z,100867.31
2023-04-27T02:45:45.903Z,100874.19
2023-04-27T02:48:14.394Z,100874.31
2023-04-27T02:50:43.996Z,100881.47
2023-04-27T02:53:12.716Z,100869.41
2023-04-27T02:55:49.271Z,100869.28
2023-04-27T02:58:17.875Z,100868.16
2023-04-27T03:00:48.875Z,100867.44
2023-04-27T03:03:17.690Z,100869.28
2023-04-27T03:05:46.677Z,100878.94
2023-04-27T03:08:15.461Z,100873.59
2023-04-27T03:10:44.190Z,100881.59
2023-04-27T03:13:12.724Z,100879.91
2023-04-27T03:15:41.951Z,100882.72
2023-04-27T03:18:10.412Z,100876.78
2023-04-27T03:20:40.241Z,100887.91
2023-04-27T03:23:08.722Z,100880.44
2023-04-27T03:25:38.833Z,100884.06
2023-04-27T03:28:09.622Z,100888.88
2023-04-27T03:30:41.670Z,100894.47
2023-04-27T03:33:10.110Z,100894.47
2023-04-27T03:35:38.844Z,100894.47
2023-04-27T03:38:07.579Z,100890.94
2023-04-27T03:40:36.286Z,100885.06
2023-04-27T03:43:04.745Z,100892.78
2023-04-27T03:45:33.385Z,100881.28
2023-04-27T03:48:01.829Z,100888.44
2023-04-27T03:50:30.862Z,100882.25
2023-04-27T03:52:59.203Z,100881.28
2023-04-27T03:55:30.086Z,100884.91
2023-04-27T03:57:58.504Z,100886.72
2023-04-27T04:00:27.333Z,100890.38
2023-04-27T04:02:55.887Z,100891.22
2023-04-27T04:05:26.085Z,100884.59
2023-04-27T04:07:54.436Z,100891.34
2023-04-27T04:10:25.007Z,100881.81
2023-04-27T04:12:53.663Z,100885.19
2023-04-27T04:15:22.338Z,100898.63
2023-04-27T04:17:52.660Z,100894.13
2023-04-27T04:20:21.756Z,100901.16
2023-04-27T04:22:50.276Z,100903.94
2023-04-27T04:25:20.936Z,100909.97
2023-04-27T04:27:49.321Z,100907.31
2023-04-27T04:30:20.374Z,100912.66
2023-04-27T04:32:48.814Z,100915.44
2023-04-27T04:35:19.911Z,100919.09
2023-04-27T04:37:48.175Z,100919.81
2023-04-27T04:40:18.227Z,100919.94
2023-04-27T04:42:46.867Z,100925.00
2023-04-27T04:45:16.626Z,100925.56
2023-04-27T04:47:45.158Z,100924.50
2023-04-27T04:50:15.781Z,100926.16
2023-04-27T04:52:43.989Z,100936.81
2023-04-27T04:55:12.857Z,100931.50
2023-04-27T04:57:41.080Z,100937.09
2023-04-27T05:00:13.887Z,100917.78
2023-04-27T05:02:42.520Z,100937.34
2023-04-27T05:05:11.417Z,100955.72
2023-04-27T05:07:39.725Z,100959.22
2023-04-27T05:10:08.846Z,100958.63
2023-04-27T05:12:37.132Z,100966.50
2023-04-27T05:15:06.732Z,100971.72
2023-04-27T05:17:35.036Z,100966.38
2023-04-27T05:20:05.365Z,100958.63
2023-04-27T05:22:33.668Z,100968.78
2023-04-27T05:25:04.912Z,100973.16
2023-04-27T05:27:33.135Z,100965.16
2023-04-27T05:30:01.758Z,100975.81
2023-04-27T05:32:30.547Z,100975.69
2023-04-27T05:34:59.236Z,100973.03
2023-04-27T05:37:27.503Z,100981.84
2023-04-27T05:39:57.137Z,100977.63
2023-04-27T05:42:25.527Z,100968.19
2023-04-27T05:44:54.320Z,100980.03
2023-04-27T05:47:23.263Z,100984.75
2023-04-27T05:49:55.612Z,100988.84
2023-04-27T05:52:29.636Z,100992.25
2023-04-27T05:55:01.338Z,100994.06
2023-04-27T05:57:30.217Z,101001.00
2023-04-27T05:59:58.824Z,100999.66
2023-04-27T06:02:27.113Z,101000.13
2023-04-27T06:04:56.740Z,100998.28
2023-04-27T06:07:25.125Z,100994.44
2023-04-27T06:09:54.949Z,100990.00
2023-04-27T06:12:23.268Z,100998.94
2023-04-27T06:14:51.819Z,101001.00
2023-04-27T06:17:21.986Z,101004.38
2023-04-27T06:19:50.719Z,101005.44
2023-04-27T06:22:18.948Z,101013.69
2023-04-27T06:24:47.640Z,101005.22
2023-04-27T06:27:16.268Z,101015.88
2023-04-27T06:29:44.834Z,101018.97
2023-04-27T06:32:13.191Z,101015.97
2023-04-27T06:34:42.914Z,101021.88
2023-04-27T06:37:11.271Z,101018.84
2023-04-27T06:39:39.946Z,101022.94
2023-04-27T06:42:08.268Z,101017.22
2023-04-27T06:44:36.915Z,101023.16
2023-04-27T06:47:05.669Z,101027.38
2023-04-27T06:49:34.339Z,101029.94
2023-04-27T06:52:03.109Z,101028.09
2023-04-27T06:54:31.723Z,101033.19
2023-04-27T06:57:00.040Z,101025.06
2023-04-27T06:59:28.727Z,101030.00
2023-04-27T07:01:57.162Z,101040.16
2023-04-27T07:04:26.175Z,101043.69
2023-04-27T07:06:54.644Z,101036.53
2023-04-27T07:09:27.624Z,101043.31
2023-04-27T07:11:57.675Z,101039.53
2023-04-27T07:14:26.393Z,101031.41
2023-04-27T07:16:55.083Z,101030.31
2023-04-27T07:19:23.737Z,101026.81
2023-04-27T07:21:52.183Z,101029.59
2023-04-27T07:24:20.929Z,101025.13
2023-04-27T07:26:49.266Z,101027.63
2023-04-27T07:29:26.175Z,101023.91
2023-04-27T07:31:56.088Z,101036.94
2023-04-27T07:34:25.169Z,101023.63
2023-04-27T07:36:54.761Z,101033.31
2023-04-27T07:39:24.029Z,101019.41
2023-04-27T07:41:54.071Z,101029.66
2023-04-27T07:44:22.647Z,101025.91
2023-04-27T07:46:54.213Z,101037.41
2023-04-27T07:49:22.820Z,101035.59
2023-04-27T07:51:51.308Z,101038.13
2023-04-27T07:54:20.004Z,101035.72
2023-04-27T07:56:48.297Z,101039.81
2023-04-27T07:59:17.083Z,101035.34
2023-04-27T08:01:45.448Z,101045.03
2023-04-27T08:04:16.242Z,101038.13
2023-04-27T08:06:47.014Z,101048.53
2023-04-27T08:09:16.013Z,101052.19
2023-04-27T08:11:44.548Z,101047.09
2023-04-27T08:14:15.969Z,101059.91
2023-04-27T08:16:44.579Z,101048.53
2023-04-27T08:19:13.299Z,101050.09
2023-04-27T08:21:41.788Z,101058.84
2023-04-27T08:24:10.501Z,101054.34
2023-04-27T08:26:38.821Z,101061.50
2023-04-27T08:29:19.316Z,101062.47
2023-04-27T08:31:56.930Z,101064.31
2023-04-27T08:34:25.934Z,101055.56
2023-04-27T08:36:54.376Z,101064.31
2023-04-27T08:39:24.049Z,101074.72
2023-04-27T08:41:52.665Z,101073.84
2023-04-27T08:44:21.319Z,101069.63
2023-04-27T08:46:50.994Z,101068.75
2023-04-27T08:49:21.001Z,101068.69
2023-04-27T08:51:49.487Z,101078.56
2023-04-27T08:54:19.069Z,101084.75
2023-04-27T08:56:47.290Z,101078.47
2023-04-27T08:59:16.886Z,101086.09
2023-04-27T09:01:49.501Z,101083.56
2023-04-27T09:04:19.888Z,101086.81
2023-04-27T09:06:50.081Z,101081.59
2023-04-27T09:09:27.724Z,101086.09
2023-04-27T09:11:56.032Z,101077.22
2023-04-27T09:14:25.050Z,101068.75
2023-04-27T09:16:58.183Z,101073.00
2023-04-27T09:19:28.747Z,101069.63
2023-04-27T09:22:11.707Z,101073.59
2023-04-27T09:24:52.334Z,101076.41
2023-04-27T09:27:21.958Z,101069.84
2023-04-27T09:29:50.932Z,101066.09
2023-04-27T09:32:21.201Z,101062.44
2023-04-27T09:34:49.886Z,101069.47
2023-04-27T09:37:18.188Z,101050.09
2023-04-27T09:39:46.931Z,101063.25
2023-04-27T09:42:16.322Z,101054.03
2023-04-27T09:44:44.883Z,101065.09
2023-04-27T09:47:13.508Z,101053.47
2023-04-27T09:49:42.738Z,101044.59
2023-04-27T09:52:11.103Z,101055.25
2023-04-27T09:54:39.680Z,101050.66
2023-04-27T09:57:40.082Z,101047.84
2023-04-27T10:00:31.098Z,101048.56
2023-04-27T10:03:33.194Z,101041.94
2023-04-27T10:06:24.830Z,101037.78
2023-04-27T10:08:52.979Z,101044.22
2023-04-27T10:11:33.149Z,101045.78
2023-04-27T10:14:08.848Z,101033.56
2023-04-27T10:16:50.988Z,101044.47
2023-04-27T10:19:20.853Z,101037.31
2023-04-27T10:22:02.347Z,101038.91
2023-04-27T10:24:37.906Z,101031.28
2023-04-27T10:27:09.012Z,101042.53
2023-04-27T10:29:42.350Z,101037.59
2023-04-27T10:32:23.438Z,101031.03
2023-04-27T10:35:04.220Z,101034.41
2023-04-27T10:37:43.166Z,101029.91
2023-04-27T10:40:18.003Z,101040.19
2023-04-27T10:42:49.746Z,101031.22
2023-04-27T10:45:30.909Z,101029.97
2023-04-27T10:48:01.497Z,101028.88
2023-04-27T10:50:30.282Z,101018.22
2023-04-27T10:53:04.553Z,101026.59
2023-04-27T10:55:33.013Z,101024.56
2023-04-27T10:58:02.174Z,101021.97
2023-04-27T11:00:37.057Z,101026.22
2023-04-27T11:03:25.443Z,101028.00
2023-04-27T11:06:04.851Z,101014.97
2023-04-27T11:08:36.772Z,101022.63
2023-04-27T11:11:06.296Z,101018.09
2023-04-27T11:13:35.383Z,101008.97
2023-04-27T11:16:05.507Z,101002.94
2023-04-27T11:18:37.696Z,101022.25
2023-04-27T11:21:18.894Z,101016.44
2023-04-27T11:23:48.491Z,101007.09
2023-04-27T11:26:21.816Z,100993.69
2023-04-27T11:29:06.459Z,101013.97
2023-04-27T11:31:43.893Z,101016.63
2023-04-27T11:34:19.339Z,101008.44
2023-04-27T11:37:10.762Z,101001.75
2023-04-27T11:39:46.080Z,101011.06
2023-04-27T11:42:25.297Z,101004.34
2023-04-27T11:44:56.219Z,101003.59
2023-04-27T11:47:26.186Z,101007.41
2023-04-27T11:50:04.945Z,101011.50
2023-04-27T11:52:34.936Z,101012.34
2023-04-27T11:55:04.275Z,101002.53
2023-04-27T11:57:33.964Z,101003.06
2023-04-27T12:00:11.148Z,101007.56
2023-04-27T12:02:44.543Z,101009.22
2023-04-27T12:05:14.825Z,101006.31
2023-04-27T12:07:43.645Z,101005.97
2023-04-27T12:10:12.618Z,101011.50
2023-04-27T12:12:41.319Z,101003.63
2023-04-27T12:15:10.605Z,100999.97
2023-04-27T12:17:39.913Z,101000.81
2023-04-27T12:20:09.369Z,101012.94
2023-04-27T12:22:38.773Z,101002.00
2023-04-27T12:25:07.725Z,101007.91
2023-04-27T12:27:35.995Z,101002.56
2023-04-27T12:30:05.290Z,100991.06
2023-04-27T12:32:33.566Z,100999.06
2023-04-27T12:35:02.153Z,100996.94
2023-04-27T12:37:30.437Z,100996.81
2023-04-27T12:39:59.045Z,101002.03
2023-04-27T12:42:27.445Z,101002.88
2023-04-27T12:44:56.980Z,100998.06
2023-04-27T12:47:42.973Z,100998.41
2023-04-27T12:50:15.853Z,101008.22
2023-04-27T12:52:44.124Z,101001.63
2023-04-27T12:55:24.891Z,101005.75
2023-04-27T12:58:00.215Z,100997.44
2023-04-27T13:00:30.049Z,100998.16
2023-04-27T13:02:58.814Z,100994.38
2023-04-27T13:05:28.294Z,100999.59
2023-04-27T13:07:58.149Z,100994.13
2023-04-27T13:10:26.691Z,100984.69
2023-04-27T13:12:55.213Z,100990.75
2023-04-27T13:15:25.166Z,100990.88
2023-04-27T13:17:54.571Z,100990.63
2023-04-27T13:20:23.119Z,100981.78
2023-04-27T13:22:51.390Z,100972.91
2023-04-27T13:25:20.265Z,100975.56
2023-04-27T13:27:48.872Z,100977.53
2023-04-27T13:30:17.471Z,100972.59
2023-04-27T13:32:45.962Z,100968.09
2023-04-27T13:35:14.682Z,100966.16
2023-04-27T13:37:43.015Z,100964.19
2023-04-27T13:40:12.680Z,100965.75
2023-04-27T13:42:41.038Z,100979.94
2023-04-27T13:45:10.547Z,100972.63
2023-04-27T13:47:40.945Z,100975.31
2023-04-27T13:50:12.999Z,100967.31
2023-04-27T13:52:41.389Z,100961.97
2023-04-27T13:55:11.491Z,100958.59
2023-04-27T13:57:39.792Z,100961.69
2023-04-27T14:00:11.741Z,100951.16
2023-04-27T14:02:40.280Z,100956.63
2023-04-27T14:05:09.375Z,100949.47
2023-04-27T14:07:37.898Z,100952.00
2023-04-27T14:10:08.565Z,100950.16
2023-04-27T14:12:36.993Z,100950.28
2023-04-27T14:15:06.407Z,100946.38
2023-04-27T14:17:34.700Z,100947.25
2023-04-27T14:20:07.146Z,100943.69
2023-04-27T14:22:36.201Z,100947.38
2023-04-27T14:25:05.348Z,100945.66
2023-04-27T14:27:33.664Z,100945.66
2023-04-27T14:30:03.075Z,100941.31
2023-04-27T14:32:31.680Z,100941.31
2023-04-27T14:35:00.748Z,100939.50
2023-04-27T14:37:29.048Z,100935.00
2023-04-27T14:39:58.190Z,100935.28
2023-04-27T14:42:26.510Z,100936.69
2023-04-27T14:44:55.167Z,100940.06
2023-04-27T14:47:23.717Z,100932.75
2023-04-27T14:49:53.769Z,100936.97
2023-04-27T14:52:22.730Z,100935.88
2023-04-27T14:54:51.436Z,100933.22
2023-04-27T14:57:19.688Z,100927.88
2023-04-27T14:59:48.594Z,100925.91
2023-04-27T15:02:16.839Z,100924.91
2023-04-27T15:04:45.732Z,100926.63
2023-04-27T15:07:14.038Z,100926.63
2023-04-27T15:09:42.607Z,100928.06
2023-04-27T15:12:11.485Z,100924.56
2023-04-27T15:14:40.114Z,100911.41
2023-04-27T15:17:08.463Z,100914.84
2023-04-27T15:19:38.269Z,100927.22
2023-04-27T15:22:07.616Z,100928.06
2023-04-27T15:24:37.421Z,100924.38
2023-04-27T15:27:07.218Z,100925.09
2023-04-27T15:29:38.953Z,100923.41
2023-04-27T15:32:07.190Z,100929.59
2023-04-27T15:34:35.843Z,100934.81
2023-04-27T15:37:04.116Z,100932.00
2023-04-27T15:39:32.781Z,100928.34
2023-04-27T15:42:02.203Z,100928.34
2023-04-27T15:44:32.017Z,100929.03
2023-04-27T15:47:00.571Z,100927.38
2023-04-27T15:49:30.787Z,100926.38
2023-04-27T15:51:59.036Z,100922.72
2023-04-27T15:54:27.681Z,100933.28
2023-04-27T15:56:56.071Z,100933.28
2023-04-27T15:59:26.753Z,100927.25
2023-04-27T16:02:38.641Z,100940.19
2023-04-27T16:05:08.298Z,100931.72
2023-04-27T16:07:37.513Z,100935.53
2023-04-27T16:10:07.593Z,100938.78
2023-04-27T16:12:36.200Z,100938.78
2023-04-27T16:15:08.543Z,100932.03
2023-04-27T16:17:38.836Z,100939.63
2023-04-27T16:20:08.440Z,100934.97
2023-04-27T16:22:37.243Z,100937.94
2023-04-27T16:25:10.976Z,100938.22
2023-04-27T16:27:39.701Z,100938.47
2023-04-27T16:30:09.042Z,100943.56
2023-04-27T16:32:37.948Z,100937.50
2023-04-27T16:35:08.537Z,100943.28
2023-04-27T16:37:39.612Z,100943.56
2023-04-27T16:40:09.005Z,100937.50
2023-04-27T16:42:37.283Z,100942.00
2023-04-27T16:45:09.107Z,100949.16
2023-04-27T16:47:39.454Z,100947.06
2023-04-27T16:50:08.587Z,100954.50
2023-04-27T16:52:36.905Z,100953.97
2023-04-27T16:55:06.424Z,100954.09
2023-04-27T16:57:34.811Z,100942.84
2023-04-27T17:00:06.682Z,100955.34
2023-04-27T17:02:35.299Z,100964.78
2023-04-27T17:05:04.574Z,100963.75
2023-04-27T17:07:33.096Z,100963.22
2023-04-27T17:10:01.799Z,100962.91
2023-04-27T17:12:30.104Z,100964.63
2023-04-27T17:14:58.798Z,100968.69
2023-04-27T17:17:27.193Z,100971.59
2023-04-27T17:19:57.709Z,100966.84
2023-04-27T17:22:26.216Z,100962.47
2023-04-27T17:24:55.152Z,100968.81
2023-04-27T17:27:23.454Z,100976.69
2023-04-27T17:29:53.738Z,100975.13
2023-04-27T17:32:22.838Z,100973.09
2023-04-27T17:34:52.686Z,100971.84
2023-04-27T17:37:21.071Z,100975.47
2023-04-27T17:39:52.131Z,100972.78
2023-04-27T17:42:20.626Z,100978.94
2023-04-27T17:44:49.223Z,100985.63
2023-04-27T17:47:20.787Z,100979.31
2023-04-27T17:49:49.468Z,100977.34
2023-04-27T17:52:19.143Z,100979.56
2023-04-27T17:54:48.650Z,100985.63
2023-04-27T17:57:16.908Z,100977.72
2023-04-27T17:59:45.509Z,100987.16
2023-04-27T18:02:13.888Z,100989.25
2023-04-27T18:04:42.760Z,100990.84
2023-04-27T18:07:11.097Z,100985.81
2023-04-27T18:09:40.807Z,100975.94
2023-04-27T18:12:11.316Z,100986.41
2023-04-27T18:14:40.083Z,100988.09
2023-04-27T18:17:08.837Z,100985.88
2023-04-27T18:19:37.450Z,100988.28
2023-04-27T18:22:05.904Z,100994.34
2023-04-27T18:24:34.532Z,100994.94
2023-04-27T18:27:03.039Z,101005.72
2023-04-27T18:29:32.774Z,101000.63
2023-04-27T18:32:06.087Z,101011.06
2023-04-27T18:34:34.975Z,101009.47
2023-04-27T18:37:03.403Z,101005.25
2023-04-27T18:39:33.025Z,101012.53
2023-04-27T18:42:01.386Z,101006.75
2023-04-27T18:44:30.023Z,101009.28
2023-04-27T18:46:59.322Z,101017.28
2023-04-27T18:49:27.900Z,101017.56
2023-04-27T18:51:56.331Z,101025.56
2023-04-27T18:54:26.079Z,101025.09
2023-04-27T18:56:54.378Z,101036.22
2023-04-27T18:59:23.378Z,101050.94
2023-04-27T19:01:52.071Z,101061.72
2023-04-27T19:04:20.830Z,101063.53
2023-04-27T19:06:50.507Z,101066.44
2023-04-27T19:09:19.460Z,101069.41
2023-04-27T19:11:56.073Z,101080.78
2023-04-27T19:14:31.704Z,101082.97
2023-04-27T19:17:00.096Z,101078.22
2023-04-27T19:19:28.802Z,101084.94
2023-04-27T19:21:58.659Z,101082.56
2023-04-27T19:24:27.766Z,101082.06
2023-04-27T19:26:57.053Z,101086.16
2023-04-27T19:29:28.879Z,101095.91
2023-04-27T19:31:57.287Z,101097.72
2023-04-27T19:34:25.872Z,101107.91
2023-04-27T19:36:54.107Z,101101.47
2023-04-27T19:39:22.849Z,101108.84
2023-04-27T19:41:51.220Z,101112.13
2023-04-27T19:44:19.865Z,101110.94
2023-04-27T19:46:48.240Z,101124.75
2023-04-27T19:49:18.382Z,101124.50
2023-04-27T19:51:46.914Z,101131.88
2023-04-27T19:54:15.688Z,101134.53
2023-04-27T19:56:44.021Z,101124.38
2023-04-27T19:59:13.801Z,101136.63
2023-04-27T20:01:42.394Z,101134.09
2023-04-27T20:04:11.249Z,101138.53
2023-04-27T20:06:41.038Z,101144.00
2023-04-27T20:09:10.211Z,101150.91
2023-04-27T20:11:38.617Z,101144.78
2023-04-27T20:14:07.259Z,101149.00
2023-04-27T20:16:35.801Z,101146.69
2023-04-27T20:19:06.378Z,101149.81
2023-04-27T20:21:34.734Z,101145.72
2023-04-27T20:24:03.568Z,101137.47
2023-04-27T20:26:31.913Z,101140.75
2023-04-27T20:29:00.585Z,101141.31
2023-04-27T20:31:29.029Z,101143.72
2023-04-27T20:33:57.651Z,101149.78
2023-04-27T20:36:26.453Z,101154.16
2023-04-27T20:38:55.147Z,101152.19
2023-04-27T20:41:23.791Z,101147.59
2023-04-27T20:43:52.663Z,101161.03
2023-04-27T20:46:21.248Z,101147.34
2023-04-27T20:48:49.942Z,101155.81
2023-04-27T20:51:18.206Z,101163.00
2023-04-27T20:53:46.833Z,101151.72
2023-04-27T20:56:15.292Z,101136.25
2023-04-27T20:58:44.124Z,101153.41
2023-04-27T21:01:12.661Z,101158.50
2023-04-27T21:03:41.920Z,101160.44
2023-04-27T21:06:10.332Z,101163.94
2023-04-27T21:08:40.203Z,101167.47
2023-04-27T21:11:08.716Z,101152.31
2023-04-27T21:13:37.402Z,101163.09
2023-04-27T21:16:06.203Z,101167.47
2023-04-27T21:18:35.285Z,101159.59
2023-04-27T21:21:03.796Z,101163.00
2023-04-27T21:23:38.445Z,101151.72
2023-04-27T21:26:08.993Z,101163.81
2023-04-27T21:28:37.793Z,101161.28
2023-04-27T21:31:06.753Z,101161.28
2023-04-27T21:33:35.603Z,101163.09
2023-04-27T21:36:05.217Z,101159.47
2023-04-27T21:38:33.920Z,101165.78
2023-04-27T21:41:02.199Z,101150.63
2023-04-27T21:43:31.032Z,101155.09
2023-04-27T21:45:59.852Z,101152.56
2023-04-27T21:48:28.588Z,101151.59
2023-04-27T21:50:56.835Z,101159.59
2023-04-27T21:53:26.955Z,101154.41
2023-04-27T21:55:57.342Z,101153.41
2023-04-27T21:58:26.364Z,101153.41
2023-04-27T22:00:56.956Z,101148.94
2023-04-27T22:03:26.303Z,101149.78
2023-04-27T22:05:57.690Z,101144.44
2023-04-27T22:08:26.531Z,101144.44
2023-04-27T22:10:56.298Z,101145.41
2023-04-27T22:13:25.137Z,101150.75
2023-04-27T22:15:53.566Z,101156.06
2023-04-27T22:18:22.432Z,101161.41
2023-04-27T22:20:50.856Z,101161.41
2023-04-27T22:23:19.703Z,101154.28
2023-04-27T22:25:48.056Z,101156.22
2023-04-27T22:28:17.973Z,101156.06
2023-04-27T22:30:46.550Z,101160.69
2023-04-27T22:33:15.192Z,101159.00
2023-04-27T22:35:43.971Z,101169.56
2023-04-27T22:38:14.003Z,101166.00
2023-04-27T22:40:42.263Z,101171.50
2023-04-27T22:43:12.003Z,101175.97
2023-04-27T22:45:40.393Z,101166.16
2023-04-27T22:48:10.317Z,101168.94
2023-04-27T22:50:38.822Z,101174.28
2023-04-27T22:53:07.511Z,101172.47
2023-04-27T22:55:35.739Z,101176.94
2023-04-27T22:58:04.297Z,101187.63
2023-04-27T23:00:32.620Z,101188.56
2023-04-27T23:03:02.588Z,101174.41
2023-04-27T23:05:31.040Z,101180.56
2023-04-27T23:08:00.190Z,101184.13
2023-04-27T23:10:31.267Z,101169.31
2023-04-27T23:13:02.214Z,101176.59
2023-04-27T23:15:30.826Z,101169.31
2023-04-27T23:17:59.631Z,101171.03
2023-04-27T23:20:29.210Z,101172.25
2023-04-27T23:22:58.195Z,101174.66
2023-04-27T23:25:26.525Z,101174.78
2023-04-27T23:27:55.267Z,101179.25
2023-04-27T23:30:23.735Z,101176.59
2023-04-27T23:32:52.662Z,101181.09
2023-04-27T23:35:21.153Z,101176.47
2023-04-27T23:37:49.798Z,101176.59
2023-04-27T23:40:18.257Z,101174.91
2023-04-27T23:42:47.441Z,101166.19
2023-04-27T23:45:16.807Z,101168.75
2023-04-27T23:47:45.694Z,101174.19
2023-04-27T23:50:14.047Z,101171.41
2023-04-27T23:52:42.806Z,101169.69
2023-04-27T23:55:11.129Z,101160.88
2023-04-27T23:57:41.588Z,101165.22
